createdAt,value
2019-03-15T06:05:08.861Z,98962.94
2019-03-15T06:08:11.944Z,98977.00
2019-03-15T06:11:15.274Z,98982.59
2019-03-15T06:14:18.796Z,98981.92
2019-03-15T06:17:22.143Z,98974.88
2019-03-15T06:20:25.433Z,98973.98
2019-03-15T06:23:28.879Z,98979.77
2019-03-15T06:26:32.195Z,98988.56
2019-03-15T06:29:35.533Z,98975.62
2019-03-15T06:32:38.827Z,98982.58
2019-03-15T06:35:42.332Z,98956.31
2019-03-15T06:38:45.606Z,98995.80
2019-03-15T06:41:48.921Z,98988.88
2019-03-15T06:44:57.947Z,98991.25
2019-03-15T06:47:57.289Z,98985.56
2019-03-15T06:51:00.598Z,98981.77
2019-03-15T06:54:11.497Z,98980.00
2019-03-15T06:57:08.950Z,98971.33
2019-03-15T07:00:13.909Z,98973.45
2019-03-15T07:03:17.268Z,98957.13
2019-03-15T07:06:20.595Z,98968.73
2019-03-15T07:09:23.893Z,98969.72
2019-03-15T07:12:27.199Z,98969.00
2019-03-15T07:15:30.522Z,98966.88
2019-03-15T07:18:33.841Z,98973.14
2019-03-15T07:21:37.149Z,98967.23
2019-03-15T07:24:43.597Z,98979.50
2019-03-15T07:27:45.718Z,98981.15
2019-03-15T07:30:49.083Z,98990.50
2019-03-15T07:33:52.394Z,98981.78
2019-03-15T07:36:55.700Z,98975.37
2019-03-15T07:39:59.017Z,98973.02
2019-03-15T07:43:04.992Z,98981.01
2019-03-15T07:46:07.392Z,98977.56
2019-03-15T07:49:10.791Z,98976.14
2019-03-15T07:52:14.123Z,98983.44
2019-03-15T07:55:17.451Z,98983.92
2019-03-15T07:58:20.826Z,98982.38
2019-03-15T08:01:24.194Z,98991.42
2019-03-15T08:04:28.052Z,98985.75
2019-03-15T08:07:36.391Z,98976.76
2019-03-15T08:10:36.412Z,98971.81
2019-03-15T08:13:39.850Z,98973.92
2019-03-15T08:16:43.187Z,98980.13
2019-03-15T08:19:46.507Z,98967.38
2019-03-15T08:22:49.872Z,98971.37
2019-03-15T08:25:53.186Z,98981.05
2019-03-15T08:28:56.536Z,98971.22
2019-03-15T08:31:59.878Z,98974.69
2019-03-15T08:35:04.335Z,98961.02
2019-03-15T08:38:07.791Z,98981.20
2019-03-15T08:41:11.111Z,98980.59
2019-03-15T08:44:14.475Z,98978.78
2019-03-15T08:47:17.775Z,98986.13
2019-03-15T08:50:24.383Z,98987.26
2019-03-15T08:53:26.202Z,98982.81
2019-03-15T08:56:29.603Z,98988.47
2019-03-15T08:59:32.933Z,98991.41
2019-03-15T09:02:36.241Z,98984.33
2019-03-15T09:05:39.620Z,98975.54
2019-03-15T09:08:42.935Z,98983.27
2019-03-15T09:11:46.275Z,98979.11
2019-03-15T09:14:49.583Z,98988.02
2019-03-15T09:17:52.976Z,98980.25
2019-03-15T09:20:56.321Z,98991.86
2019-03-15T09:23:59.631Z,98990.30
2019-03-15T09:27:02.986Z,98981.53
2019-03-15T09:30:22.627Z,98982.67
2019-03-15T09:33:16.578Z,98978.00
2019-03-15T09:36:19.889Z,98986.89
2019-03-15T09:39:25.698Z,98992.95
2019-03-15T09:42:29.024Z,98977.05
2019-03-15T09:45:32.380Z,98979.41
2019-03-15T09:48:35.700Z,98979.67
2019-03-15T09:51:39.020Z,98971.73
2019-03-15T09:54:42.328Z,98961.34
2019-03-15T09:57:45.638Z,98944.34
2019-03-15T10:00:48.980Z,98953.34
2019-03-15T10:03:52.330Z,98951.57
2019-03-15T10:06:55.629Z,98949.91
2019-03-15T10:10:12.521Z,98921.09
2019-03-15T10:13:06.102Z,98930.53
2019-03-15T10:16:09.124Z,98922.20
2019-03-15T10:19:12.439Z,98934.39
2019-03-15T10:22:15.769Z,98941.89
2019-03-15T10:25:19.093Z,98935.88
2019-03-15T10:28:22.407Z,98946.29
2019-03-15T10:31:26.817Z,98937.25
2019-03-15T10:34:30.329Z,98958.50
2019-03-15T10:37:33.637Z,98958.44
2019-03-15T10:40:36.959Z,98951.39
2019-03-15T10:43:40.265Z,98949.71
2019-03-15T10:46:43.588Z,98941.41
2019-03-15T10:49:46.895Z,98944.13
2019-03-15T10:52:53.552Z,98935.20
2019-03-15T10:56:00.501Z,98928.81
2019-03-15T10:59:00.317Z,98927.36
2019-03-15T11:02:03.799Z,98916.02
2019-03-15T11:05:08.949Z,98913.09
2019-03-15T11:08:12.240Z,98909.77
2019-03-15T11:11:15.554Z,98900.83
2019-03-15T11:14:18.852Z,98905.14
2019-03-15T11:17:22.159Z,98907.88
2019-03-15T11:20:25.562Z,98908.00
2019-03-15T11:23:28.999Z,98901.39
2019-03-15T11:26:32.368Z,98886.36
2019-03-15T11:29:35.862Z,98887.40
2019-03-15T11:32:41.789Z,98888.70
2019-03-15T11:35:45.127Z,98893.16
2019-03-15T11:38:48.434Z,98879.77
2019-03-15T11:41:51.819Z,98870.81
2019-03-15T11:44:55.080Z,98876.97
2019-03-15T11:48:04.080Z,98867.41
2019-03-15T11:51:05.916Z,98869.22
2019-03-15T11:54:09.238Z,98856.40
2019-03-15T11:57:12.550Z,98845.66
2019-03-15T12:00:16.834Z,98848.38
2019-03-15T12:03:20.184Z,98851.01
2019-03-15T12:06:23.522Z,98859.25
2019-03-15T12:09:26.821Z,98847.34
2019-03-15T12:12:30.249Z,98841.95
2019-03-15T12:15:36.144Z,98833.12
2019-03-15T12:18:38.597Z,98824.03
2019-03-15T12:21:41.937Z,98802.93
2019-03-15T12:24:45.244Z,98811.09
2019-03-15T12:27:48.576Z,98796.73
2019-03-15T12:30:51.972Z,98798.36
2019-03-15T12:33:55.305Z,98794.61
2019-03-15T12:36:58.622Z,98792.77
2019-03-15T12:40:01.933Z,98777.80
2019-03-15T12:43:05.283Z,98764.88
2019-03-15T12:46:08.621Z,98764.69
2019-03-15T12:49:11.918Z,98742.27
2019-03-15T12:52:15.228Z,98729.61
2019-03-15T12:55:18.565Z,98736.33
2019-03-15T12:58:23.161Z,98729.55
2019-03-15T13:01:26.481Z,98731.61
2019-03-15T13:04:29.806Z,98713.94
2019-03-15T13:07:33.145Z,98711.32
2019-03-15T13:10:36.479Z,98697.47
2019-03-15T13:13:39.852Z,98694.42
2019-03-15T13:16:44.787Z,98681.66
2019-03-15T13:19:55.069Z,98682.76
2019-03-15T13:22:53.161Z,98673.50
2019-03-15T13:25:56.471Z,98675.50
2019-03-15T13:28:59.816Z,98669.50
2019-03-15T13:32:03.178Z,98652.86
2019-03-15T13:35:08.828Z,98665.70
2019-03-15T13:38:12.161Z,98658.42
2019-03-15T13:41:15.499Z,98662.50
2019-03-15T13:44:18.872Z,98660.14
2019-03-15T13:47:22.155Z,98656.06
2019-03-15T13:50:25.492Z,98656.06
2019-03-15T13:53:28.791Z,98658.86
2019-03-15T13:56:32.154Z,98650.05
2019-03-15T13:59:35.448Z,98641.02
2019-03-15T14:02:38.746Z,98635.94
2019-03-15T14:05:42.048Z,98644.87
2019-03-15T14:08:45.399Z,98638.19
2019-03-15T14:11:48.718Z,98640.88
2019-03-15T14:14:52.095Z,98629.49
2019-03-15T14:17:55.395Z,98633.15
2019-03-15T14:20:58.700Z,98616.41
2019-03-15T14:24:02.013Z,98610.78
2019-03-15T14:27:05.312Z,98612.84
2019-03-15T14:30:11.169Z,98604.98
2019-03-15T14:33:14.458Z,98618.56
2019-03-15T14:36:18.250Z,98617.17
2019-03-15T14:39:21.740Z,98620.83
2019-03-15T14:42:25.012Z,98626.91
2019-03-15T14:45:28.354Z,98623.83
2019-03-15T14:48:31.622Z,98618.93
2019-03-15T14:51:34.929Z,98621.17
2019-03-15T14:54:50.221Z,98597.14
2019-03-15T14:57:53.775Z,98585.51
2019-03-15T15:00:57.129Z,98599.21
2019-03-15T15:04:00.430Z,98579.22
2019-03-15T15:07:03.804Z,98581.85
2019-03-15T15:10:10.245Z,98580.20
2019-03-15T15:13:13.588Z,98570.73
2019-03-15T15:16:16.948Z,98572.61
2019-03-15T15:19:20.396Z,98560.89
2019-03-15T15:22:23.711Z,98557.05
2019-03-15T15:25:27.062Z,98558.56
2019-03-15T15:28:30.380Z,98563.28
2019-03-15T15:31:33.793Z,98561.11
2019-03-15T15:34:37.108Z,98547.84
2019-03-15T15:37:40.431Z,98542.64
2019-03-15T15:40:43.758Z,98533.02
2019-03-15T15:43:47.066Z,98531.41
2019-03-15T15:46:50.427Z,98519.47
2019-03-15T15:49:53.745Z,98524.73
2019-03-15T15:52:57.255Z,98527.16
2019-03-15T15:56:00.552Z,98517.05
2019-03-15T15:59:03.889Z,98500.70
2019-03-15T16:02:08.621Z,98492.83
2019-03-15T16:05:12.123Z,98489.27
2019-03-15T16:08:15.644Z,98488.85
2019-03-15T16:11:18.931Z,98486.52
2019-03-15T16:14:22.280Z,98486.78
2019-03-15T16:17:25.594Z,98475.78
2019-03-15T16:20:28.920Z,98467.63
2019-03-15T16:23:32.238Z,98467.55
2019-03-15T16:26:35.672Z,98472.47
2019-03-15T16:29:39.040Z,98450.75
2019-03-15T16:32:42.371Z,98448.67
2019-03-15T16:35:45.698Z,98445.32
2019-03-15T16:38:49.073Z,98444.34
2019-03-15T16:41:52.388Z,98434.70
2019-03-15T16:44:55.716Z,98423.25
2019-03-15T16:47:59.031Z,98420.58
2019-03-15T16:51:02.381Z,98411.13
2019-03-15T16:54:05.751Z,98407.37
2019-03-15T16:57:09.043Z,98421.36
2019-03-15T17:00:14.562Z,98400.70
2019-03-15T17:03:17.993Z,98412.47
2019-03-15T17:06:21.324Z,98417.13
2019-03-15T17:09:24.666Z,98398.06
2019-03-15T17:12:27.973Z,98411.30
2019-03-15T17:15:31.474Z,98420.66
2019-03-15T17:18:34.892Z,98413.03
2019-03-15T17:21:38.243Z,98433.60
2019-03-15T17:24:41.584Z,98439.56
2019-03-15T17:27:44.906Z,98449.62
2019-03-15T17:30:48.316Z,98466.77
2019-03-15T17:33:51.630Z,98498.64
2019-03-15T17:37:06.027Z,98535.97
2019-03-15T17:39:59.996Z,98545.25
2019-03-15T17:43:03.325Z,98554.39
2019-03-15T17:46:06.636Z,98521.16
2019-03-15T17:49:09.998Z,98539.56
2019-03-15T17:52:13.334Z,98531.30
2019-03-15T17:55:16.840Z,98552.91
2019-03-15T17:58:20.130Z,98568.55
2019-03-15T18:01:23.465Z,98574.50
2019-03-15T18:04:26.790Z,98584.56
2019-03-15T18:07:30.099Z,98572.30
2019-03-15T18:10:33.416Z,98591.52
2019-03-15T18:13:36.722Z,98581.88
2019-03-15T18:16:40.049Z,98603.55
2019-03-15T18:19:43.342Z,98606.11
2019-03-15T18:22:46.717Z,98587.08
2019-03-15T18:25:50.047Z,98600.95
2019-03-15T18:28:53.364Z,98583.75
2019-03-15T18:31:56.695Z,98590.69
2019-03-15T18:34:59.987Z,98574.20
2019-03-15T18:38:03.331Z,98582.47
2019-03-15T18:41:06.686Z,98587.62
2019-03-15T18:44:09.981Z,98585.61
2019-03-15T18:47:13.370Z,98586.97
2019-03-15T18:50:25.524Z,98595.74
2019-03-15T18:53:28.913Z,98603.36
2019-03-15T18:56:32.230Z,98613.03
2019-03-15T18:59:40.094Z,98609.45
2019-03-15T19:02:40.721Z,98613.92
2019-03-15T19:05:44.031Z,98617.30
2019-03-15T19:08:47.344Z,98616.60
2019-03-15T19:11:50.647Z,98614.19
2019-03-15T19:14:53.972Z,98628.16
2019-03-15T19:17:57.321Z,98640.77
2019-03-15T19:21:00.642Z,98641.22
2019-03-15T19:24:04.043Z,98653.89
2019-03-15T19:27:07.338Z,98663.95
2019-03-15T19:30:15.880Z,98667.68
2019-03-15T19:33:19.206Z,98672.45
2019-03-15T19:36:22.560Z,98678.67
2019-03-15T19:39:25.897Z,98689.70
2019-03-15T19:42:29.182Z,98681.77
2019-03-15T19:45:32.506Z,98673.34
2019-03-15T19:48:35.835Z,98677.92
2019-03-15T19:51:39.235Z,98695.09
2019-03-15T19:54:42.541Z,98700.32
2019-03-15T19:57:45.902Z,98716.32
2019-03-15T20:00:49.307Z,98712.88
2019-03-15T20:03:52.676Z,98711.63
2019-03-15T20:06:56.048Z,98706.83
2019-03-15T20:09:59.381Z,98707.45
2019-03-15T20:13:02.970Z,98730.83
2019-03-15T20:16:06.487Z,98729.11
2019-03-15T20:19:09.809Z,98737.67
2019-03-15T20:22:13.181Z,98744.48
2019-03-15T20:25:17.086Z,98741.40
2019-03-15T20:28:20.396Z,98745.74
2019-03-15T20:31:23.779Z,98751.95
2019-03-15T20:34:27.218Z,98748.33
2019-03-15T20:37:30.827Z,98773.37
2019-03-15T20:40:34.193Z,98777.31
2019-03-15T20:43:37.654Z,98784.50
2019-03-15T20:46:40.977Z,98788.27
2019-03-15T20:49:44.322Z,98791.06
2019-03-15T20:52:47.705Z,98784.36
2019-03-15T20:55:52.710Z,98804.11
2019-03-15T20:58:56.133Z,98805.70
2019-03-15T21:01:59.481Z,98813.08
2019-03-15T21:05:02.863Z,98824.03
2019-03-15T21:08:07.860Z,98811.35
2019-03-15T21:11:11.195Z,98822.16
2019-03-15T21:14:14.495Z,98819.67
2019-03-15T21:17:17.828Z,98824.05
2019-03-15T21:20:22.837Z,98835.27
2019-03-15T21:23:26.234Z,98842.73
2019-03-15T21:26:29.573Z,98848.79
2019-03-15T21:29:32.867Z,98853.38
2019-03-15T21:32:36.191Z,98850.37
2019-03-15T21:35:39.515Z,98868.02
2019-03-15T21:38:48.164Z,98867.27
2019-03-15T21:41:47.935Z,98873.29
2019-03-15T21:44:51.287Z,98868.53
2019-03-15T21:47:54.615Z,98880.84
2019-03-15T21:50:58.836Z,98878.25
2019-03-15T21:54:14.682Z,98882.33
2019-03-15T21:57:21.825Z,98881.55
2019-03-15T22:00:29.006Z,98885.45
2019-03-15T22:03:40.614Z,98891.33
2019-03-15T22:06:44.106Z,98897.03
2019-03-15T22:09:47.449Z,98930.25
2019-03-15T22:12:50.796Z,98938.02
2019-03-15T22:15:54.087Z,98947.13
2019-03-15T22:18:57.423Z,98957.81
2019-03-15T22:22:00.760Z,98970.34
2019-03-15T22:25:05.624Z,98970.17
2019-03-15T22:28:09.137Z,98988.77
2019-03-15T22:31:16.813Z,98987.03
2019-03-15T22:34:17.804Z,99002.09
2019-03-15T22:37:21.136Z,98999.59
2019-03-15T22:40:26.122Z,99016.64
2019-03-15T22:43:29.431Z,99012.68
2019-03-15T22:46:32.733Z,99002.55
2019-03-15T22:49:36.086Z,99010.08
2019-03-15T22:52:39.419Z,99037.91
2019-03-15T22:55:42.731Z,99028.52
2019-03-15T22:58:46.065Z,99025.20
2019-03-15T23:01:49.381Z,99039.79
2019-03-15T23:04:52.713Z,99034.18
2019-03-15T23:07:56.051Z,99038.45
2019-03-15T23:10:59.396Z,99041.67
2019-03-15T23:14:02.747Z,99036.57
2019-03-15T23:17:06.272Z,99038.88
2019-03-15T23:20:11.356Z,99044.52
2019-03-15T23:23:23.923Z,99053.68
2019-03-15T23:26:20.682Z,99054.42
2019-03-15T23:29:24.008Z,99061.62
2019-03-15T23:32:27.341Z,99063.50
2019-03-15T23:35:30.669Z,99072.27
2019-03-15T23:38:34.000Z,99079.86
2019-03-15T23:41:37.300Z,99081.42
2019-03-15T23:44:40.661Z,99080.20
2019-03-15T23:47:44.192Z,99078.33
2019-03-15T23:50:47.525Z,99092.61
2019-03-15T23:53:50.862Z,99106.78
2019-03-15T23:56:54.198Z,99107.10
2019-03-15T23:59:57.519Z,99113.44
